createdAt,value
2023-08-27T00:00:51.009Z,90.23
2023-08-27T00:06:14.195Z,90.43
2023-08-27T00:11:17.197Z,91.23
2023-08-27T00:16:20.359Z,91.08
2023-08-27T00:21:23.630Z,91.03
2023-08-27T00:26:26.632Z,91.06
2023-08-27T00:31:32.033Z,91.21
2023-08-27T00:36:36.632Z,90.83
2023-08-27T00:41:39.645Z,91.09
2023-08-27T00:46:42.648Z,91.42
2023-08-27T00:51:48.033Z,91.28
2023-08-27T00:56:51.942Z,91.36
2023-08-27T01:01:54.944Z,91.79
2023-08-27T01:07:08.085Z,91.02
2023-08-27T01:12:21.236Z,90.70
2023-08-27T01:17:24.980Z,90.93
2023-08-27T01:22:29.807Z,92.12
2023-08-27T01:27:41.109Z,91.52
2023-08-27T01:32:51.123Z,91.55
2023-08-27T01:37:54.901Z,91.79
2023-08-27T01:42:58.227Z,92.01
2023-08-27T01:48:01.778Z,92.39
2023-08-27T01:53:04.844Z,91.70
2023-08-27T01:58:07.954Z,91.52
2023-08-27T02:03:10.992Z,91.72
2023-08-27T02:08:14.171Z,91.95
2023-08-27T02:13:18.039Z,92.30
2023-08-27T02:18:21.107Z,92.20
2023-08-27T02:23:24.738Z,92.27
2023-08-27T02:28:28.758Z,92.08
2023-08-27T02:33:31.864Z,92.24
2023-08-27T02:38:35.796Z,92.38
2023-08-27T02:43:38.806Z,92.44
2023-08-27T02:48:41.809Z,92.54
2023-08-27T02:53:44.927Z,92.72
2023-08-27T02:58:51.640Z,92.21
2023-08-27T03:03:54.719Z,92.15
2023-08-27T03:08:57.831Z,92.50
2023-08-27T03:14:00.939Z,91.81
2023-08-27T03:19:04.151Z,91.93
2023-08-27T03:24:07.786Z,91.99
2023-08-27T03:29:10.912Z,91.99
2023-08-27T03:34:14.094Z,92.16
2023-08-27T03:39:17.107Z,92.77
2023-08-27T03:44:20.106Z,92.78
2023-08-27T03:49:23.128Z,92.64
2023-08-27T03:54:27.961Z,92.92
2023-08-27T03:59:31.070Z,92.80
2023-08-27T04:04:34.391Z,92.82
2023-08-27T04:09:37.502Z,92.94
2023-08-27T04:14:40.511Z,92.98
2023-08-27T04:24:47.552Z,93.06
2023-08-27T04:29:50.759Z,92.89
2023-08-27T04:34:53.964Z,93.05
2023-08-27T04:39:56.974Z,93.07
2023-08-27T04:44:59.976Z,93.30
2023-08-27T04:50:03.087Z,93.39
2023-08-27T04:55:07.594Z,93.09
2023-08-27T05:00:18.420Z,93.70
2023-08-27T05:05:21.431Z,93.65
2023-08-27T05:10:24.531Z,93.65
2023-08-27T05:15:27.718Z,92.96
2023-08-27T05:20:30.962Z,92.91
2023-08-27T05:25:34.274Z,92.97
2023-08-27T05:30:37.693Z,92.37
2023-08-27T05:35:41.421Z,92.68
2023-08-27T05:40:44.513Z,92.54
2023-08-27T05:45:47.434Z,92.64
2023-08-27T05:50:50.535Z,92.06
2023-08-27T05:55:53.477Z,91.21
2023-08-27T06:00:57.859Z,90.87
2023-08-27T06:06:01.092Z,90.20
2023-08-27T06:11:05.636Z,89.97
2023-08-27T06:16:08.951Z,89.56
2023-08-27T06:21:12.194Z,89.07
2023-08-27T06:26:15.369Z,87.84
2023-08-27T06:31:18.391Z,88.26
2023-08-27T06:36:21.507Z,88.03
2023-08-27T06:41:24.495Z,87.70
2023-08-27T06:46:27.628Z,86.59
2023-08-27T06:51:30.606Z,86.27
2023-08-27T06:56:33.612Z,85.59
2023-08-27T07:01:36.622Z,85.26
2023-08-27T07:06:39.737Z,83.47
2023-08-27T07:11:43.119Z,82.66
2023-08-27T07:16:46.259Z,83.22
2023-08-27T07:21:49.510Z,83.46
2023-08-27T07:26:53.098Z,83.05
2023-08-27T07:31:56.301Z,83.16
2023-08-27T07:36:59.613Z,82.91
2023-08-27T07:42:04.066Z,81.70
2023-08-27T07:47:07.267Z,80.38
2023-08-27T07:52:10.381Z,75.03
2023-08-27T07:57:14.151Z,73.61
2023-08-27T08:02:17.216Z,72.54
2023-08-27T08:07:20.630Z,67.04
2023-08-27T08:12:23.732Z,63.44
2023-08-27T08:17:39.639Z,66.11
2023-08-27T08:22:47.148Z,66.13
2023-08-27T08:27:50.098Z,65.95
2023-08-27T08:32:53.808Z,67.26
2023-08-27T08:37:56.894Z,67.09
2023-08-27T08:43:02.952Z,65.26
2023-08-27T08:48:07.542Z,63.81
2023-08-27T08:53:15.891Z,64.31
2023-08-27T08:58:21.405Z,65.96
2023-08-27T09:03:26.503Z,67.22
2023-08-27T09:08:32.313Z,68.48
2023-08-27T09:13:35.558Z,69.68
2023-08-27T09:18:39.189Z,70.90
2023-08-27T09:23:42.293Z,69.92
2023-08-27T09:28:45.780Z,68.02
2023-08-27T09:33:48.817Z,67.17
2023-08-27T09:38:51.918Z,66.51
2023-08-27T09:43:55.530Z,65.78
2023-08-27T09:49:00.592Z,65.86
2023-08-27T09:54:18.653Z,66.00
2023-08-27T09:59:22.580Z,65.19
2023-08-27T10:04:25.687Z,64.55
2023-08-27T10:09:35.710Z,64.05
2023-08-27T10:14:41.650Z,63.67
2023-08-27T10:19:45.160Z,64.24
2023-08-27T10:24:50.415Z,63.84
2023-08-27T10:29:55.061Z,64.24
2023-08-27T10:34:58.267Z,64.25
2023-08-27T10:40:02.434Z,64.08
2023-08-27T10:45:16.586Z,64.27
2023-08-27T10:50:22.904Z,64.85
2023-08-27T10:55:39.174Z,65.13
2023-08-27T11:00:58.422Z,65.16
2023-08-27T11:06:16.761Z,65.32
2023-08-27T11:11:26.548Z,65.45
2023-08-27T11:16:30.969Z,64.80
2023-08-27T11:21:34.351Z,64.96
2023-08-27T11:26:38.480Z,64.82
2023-08-27T11:31:42.924Z,64.70
2023-08-27T11:36:50.432Z,63.92
2023-08-27T11:41:53.950Z,62.39
2023-08-27T11:47:06.586Z,61.78
2023-08-27T11:52:10.232Z,60.87
2023-08-27T11:57:17.523Z,60.82
2023-08-27T12:02:21.279Z,61.03
2023-08-27T12:07:31.224Z,61.30
2023-08-27T12:12:38.520Z,61.35
2023-08-27T12:17:41.968Z,61.59
2023-08-27T12:22:47.308Z,61.61
2023-08-27T12:27:50.811Z,60.73
2023-08-27T12:32:57.007Z,60.79
2023-08-27T12:38:00.785Z,59.97
2023-08-27T12:43:04.747Z,59.85
2023-08-27T12:48:08.676Z,60.58
2023-08-27T12:53:12.194Z,61.21
2023-08-27T12:58:15.628Z,61.50
2023-08-27T13:03:19.093Z,61.50
2023-08-27T13:08:22.649Z,61.65
2023-08-27T13:13:26.529Z,60.77
2023-08-27T13:18:30.506Z,61.24
2023-08-27T13:23:33.920Z,61.36
2023-08-27T13:28:37.969Z,59.88
2023-08-27T13:33:41.577Z,60.22
2023-08-27T13:38:45.449Z,60.43
2023-08-27T13:43:48.962Z,60.11
2023-08-27T13:48:52.439Z,60.88
2023-08-27T13:53:55.962Z,60.66
2023-08-27T13:58:59.378Z,60.49
2023-08-27T14:04:02.798Z,61.07
2023-08-27T14:09:06.619Z,61.24
2023-08-27T14:14:10.237Z,60.67
2023-08-27T14:19:13.859Z,60.83
2023-08-27T14:24:17.187Z,61.60
2023-08-27T14:29:20.689Z,61.78
2023-08-27T14:34:24.718Z,62.31
2023-08-27T14:39:29.675Z,61.97
2023-08-27T14:44:34.829Z,61.71
2023-08-27T14:49:38.553Z,61.52
2023-08-27T14:54:42.072Z,61.42
2023-08-27T14:59:48.379Z,60.81
2023-08-27T15:04:52.024Z,61.10
2023-08-27T15:09:55.601Z,61.63
2023-08-27T15:14:59.038Z,62.40
2023-08-27T15:20:02.436Z,63.11
2023-08-27T15:25:06.238Z,63.87
2023-08-27T15:30:11.160Z,64.85
2023-08-27T15:35:17.423Z,65.71
2023-08-27T15:40:21.013Z,66.93
2023-08-27T15:45:24.533Z,67.44
2023-08-27T15:50:28.057Z,68.00
2023-08-27T15:55:31.477Z,68.16
2023-08-27T16:00:43.612Z,69.29
2023-08-27T16:05:47.413Z,69.70
2023-08-27T16:10:51.354Z,69.60
2023-08-27T16:15:55.184Z,69.70
2023-08-27T16:20:58.682Z,69.87
2023-08-27T16:26:02.113Z,70.33
2023-08-27T16:31:06.498Z,70.56
2023-08-27T16:36:09.961Z,70.73
2023-08-27T16:41:13.683Z,70.81
2023-08-27T16:46:17.766Z,71.10
2023-08-27T16:51:21.467Z,71.44
2023-08-27T16:56:25.158Z,71.85
2023-08-27T17:01:31.356Z,72.13
2023-08-27T17:06:35.582Z,72.73
2023-08-27T17:11:40.021Z,73.87
2023-08-27T17:16:46.422Z,74.86
2023-08-27T17:21:50.125Z,75.47
2023-08-27T17:26:53.750Z,76.09
2023-08-27T17:31:57.535Z,76.65
2023-08-27T17:37:01.838Z,77.60
2023-08-27T17:42:08.103Z,78.54
2023-08-27T17:47:13.170Z,79.61
2023-08-27T17:52:16.569Z,79.93
2023-08-27T17:57:20.086Z,80.38
2023-08-27T18:02:23.829Z,80.91
2023-08-27T18:07:27.430Z,80.75
2023-08-27T18:12:30.840Z,80.95
2023-08-27T18:17:37.387Z,81.04
2023-08-27T18:22:41.374Z,80.93
2023-08-27T18:27:46.118Z,81.14
2023-08-27T18:32:49.648Z,81.69
2023-08-27T18:37:53.260Z,81.57
2023-08-27T18:42:56.992Z,81.92
2023-08-27T18:48:00.972Z,81.55
2023-08-27T18:53:04.841Z,81.74
2023-08-27T18:58:08.982Z,82.40
2023-08-27T19:03:13.039Z,82.13
2023-08-27T19:08:18.281Z,82.35
2023-08-27T19:13:22.178Z,83.26
2023-08-27T19:18:26.180Z,84.88
2023-08-27T19:23:31.165Z,86.33
2023-08-27T19:28:35.110Z,85.54
2023-08-27T19:33:38.614Z,86.93
2023-08-27T19:38:43.275Z,86.53
2023-08-27T19:43:47.520Z,87.37
2023-08-27T19:48:51.220Z,88.03
2023-08-27T19:53:57.762Z,87.60
2023-08-27T19:59:01.530Z,87.84
2023-08-27T20:04:05.885Z,88.56
2023-08-27T20:09:09.395Z,89.07
2023-08-27T20:14:13.319Z,89.01
2023-08-27T20:19:17.166Z,89.62
2023-08-27T20:24:21.286Z,89.87
2023-08-27T20:29:24.799Z,89.90
2023-08-27T20:34:30.982Z,91.03
2023-08-27T20:39:35.315Z,91.29
2023-08-27T20:44:39.443Z,91.30
2023-08-27T20:49:43.383Z,91.04
2023-08-27T20:54:47.920Z,90.97
2023-08-27T20:59:54.611Z,91.48
2023-08-27T21:04:58.448Z,92.16
2023-08-27T21:10:01.968Z,91.96
2023-08-27T21:15:06.198Z,91.78
2023-08-27T21:20:09.994Z,92.01
2023-08-27T21:25:13.344Z,92.49
2023-08-27T21:30:17.152Z,92.88
2023-08-27T21:35:20.578Z,92.09
2023-08-27T21:40:24.399Z,91.64
2023-08-27T21:45:27.953Z,91.55
2023-08-27T21:50:31.437Z,91.59
2023-08-27T21:55:35.154Z,91.52
2023-08-27T22:00:39.543Z,91.70
2023-08-27T22:05:43.024Z,91.64
2023-08-27T22:10:46.248Z,91.53
2023-08-27T22:15:53.033Z,91.44
2023-08-27T22:20:58.080Z,91.57
2023-08-27T22:26:02.321Z,91.74
2023-08-27T22:31:06.217Z,91.69
2023-08-27T22:36:09.770Z,91.59
2023-08-27T22:41:12.868Z,91.66
2023-08-27T22:46:16.119Z,91.54
2023-08-27T22:51:19.321Z,92.03
2023-08-27T22:56:22.507Z,92.36
2023-08-27T23:01:25.610Z,92.28
2023-08-27T23:06:29.847Z,91.98
2023-08-27T23:11:33.067Z,92.07
2023-08-27T23:16:37.111Z,91.89
2023-08-27T23:21:40.203Z,91.54
2023-08-27T23:26:43.209Z,91.88
2023-08-27T23:31:46.214Z,92.25
2023-08-27T23:36:49.434Z,92.58
2023-08-27T23:41:52.534Z,92.75
2023-08-27T23:46:55.853Z,92.88
2023-08-27T23:51:58.851Z,92.95
2023-08-27T23:57:01.886Z,92.98
